Time;durP1;ratioP1;P1;durP2;ratioP2;P2;SDS_P1;SDS_P2;PMS_P1;PMS_P2;Temp;Humidity;BMP_temperature;BMP_pressure;BME280_temperature;BME280_humidity;BME280_pressure;Samples;Min_cycle;Max_cycle;Signal;HPM_P1;HPM_P2
2023/12/25 00:01:01;;;;;;;15.35;6.93;;;;;;;8.35;54.05;94821.28;5108086;28;20027;-77
2023/12/25 00:03:26;;;;;;;14.48;6.35;;;;;;;8.36;54.10;94820.88;5109214;28;20168;-77
2023/12/25 00:05:51;;;;;;;14.10;7.28;;;;;;;8.31;54.24;94810.38;5108276;28;20028;-77
2023/12/25 00:08:17;;;;;;;12.15;6.55;;;;;;;8.35;54.20;94824.03;5107444;28;20020;-77
2023/12/25 00:10:42;;;;;;;14.70;6.95;;;;;;;8.32;54.44;94817.44;5108868;27;20027;-78
2023/12/25 00:13:07;;;;;;;12.00;7.70;;;;;;;8.31;54.35;94824.09;5107493;27;20164;-76
2023/12/25 00:15:33;;;;;;;18.00;7.65;;;;;;;8.23;54.54;94811.75;5108994;28;20023;-77
2023/12/25 00:17:58;;;;;;;13.63;7.53;;;;;;;8.21;54.69;94803.97;5107996;28;20357;-77
2023/12/25 00:20:24;;;;;;;11.20;6.57;;;;;;;8.18;54.49;94812.25;5109431;28;20055;-77
2023/12/25 00:22:49;;;;;;;11.85;7.40;;;;;;;8.14;54.79;94803.34;5107848;28;20408;-77
2023/12/25 00:25:14;;;;;;;13.80;7.35;;;;;;;8.08;55.00;94794.09;5108353;28;20122;-77
2023/12/25 00:27:40;;;;;;;12.60;8.00;;;;;;;8.05;54.91;94792.22;5108283;28;20127;-77
2023/12/25 00:30:06;;;;;;;11.57;5.70;;;;;;;7.96;54.89;94795.50;5105635;28;20038;-77
2023/12/25 00:32:31;;;;;;;11.95;6.15;;;;;;;7.94;55.04;94806.13;5108600;27;20450;-77
2023/12/25 00:34:56;;;;;;;14.50;6.38;;;;;;;7.99;54.95;94795.44;5107444;28;20095;-77
2023/12/25 00:37:22;;;;;;;13.27;7.25;;;;;;;7.96;55.25;94795.50;5108643;28;20021;-76
2023/12/25 00:39:47;;;;;;;14.23;5.95;;;;;;;7.90;55.25;94794.47;5107555;28;20023;-76
2023/12/25 00:42:13;;;;;;;12.32;6.18;;;;;;;7.90;55.18;94792.50;5108528;28;20028;-77
2023/12/25 00:44:38;;;;;;;13.18;7.50;;;;;;;7.86;55.37;94797.28;5107609;28;20026;-77
2023/12/25 00:47:03;;;;;;;17.42;7.15;;;;;;;7.84;55.45;94794.19;5108001;27;20084;-78
2023/12/25 00:49:29;;;;;;;15.60;6.75;;;;;;;7.79;55.43;94791.16;5107928;28;20024;-77
2023/12/25 00:51:54;;;;;;;15.13;6.95;;;;;;;7.78;55.46;94792.38;5107220;28;20156;-77
2023/12/25 00:54:20;;;;;;;15.27;7.15;;;;;;;7.75;55.51;94796.72;5108376;28;20027;-77
2023/12/25 00:56:45;;;;;;;14.90;7.82;;;;;;;7.72;55.69;94800.28;5106960;28;20031;-77
2023/12/25 00:59:11;;;;;;;10.40;6.53;;;;;;;7.71;55.87;94796.78;5108112;28;20102;-77
2023/12/25 01:01:36;;;;;;;14.77;7.57;;;;;;;7.63;56.20;94798.13;5107106;28;20032;-77
2023/12/25 01:04:02;;;;;;;14.85;6.65;;;;;;;7.61;56.28;94794.25;5107543;28;20478;-77
2023/12/25 01:06:27;;;;;;;14.10;7.22;;;;;;;7.60;56.28;94790.75;5107922;28;20028;-77
2023/12/25 01:08:53;;;;;;;12.25;6.70;;;;;;;7.57;56.16;94794.34;5107260;28;20483;-77
2023/12/25 01:11:18;;;;;;;15.88;6.88;;;;;;;7.45;56.29;94794.94;5107592;28;20081;-77
2023/12/25 01:13:43;;;;;;;11.32;6.60;;;;;;;7.44;56.57;94782.47;5106413;28;20043;-77
2023/12/25 01:16:09;;;;;;;13.20;6.93;;;;;;;7.47;56.43;94792.59;5107517;28;20027;-77
2023/12/25 01:18:34;;;;;;;12.77;7.32;;;;;;;7.43;56.81;94789.91;5106680;28;20024;-76
2023/12/25 01:21:00;;;;;;;14.00;7.25;;;;;;;7.41;56.56;94778.63;5106020;28;20027;-77
2023/12/25 01:23:25;;;;;;;13.52;7.10;;;;;;;7.34;57.03;94780.69;5106664;28;20032;-77
2023/12/25 01:25:50;;;;;;;14.45;8.40;;;;;;;7.32;57.43;94775.66;5107078;28;20027;-77
2023/12/25 01:28:16;;;;;;;18.40;8.57;;;;;;;7.28;57.34;94791.34;5106862;28;20553;-77
2023/12/25 01:30:41;;;;;;;15.77;9.23;;;;;;;7.26;57.50;94782.81;5106588;28;20024;-78
2023/12/25 01:33:07;;;;;;;14.15;8.48;;;;;;;7.16;57.47;94790.00;5107180;28;20103;-76
2023/12/25 01:35:32;;;;;;;15.00;7.32;;;;;;;7.19;57.53;94769.28;5106464;28;20397;-77
2023/12/25 01:37:58;;;;;;;15.60;8.00;;;;;;;7.19;57.57;94788.41;5107144;28;20059;-77
2023/12/25 01:40:23;;;;;;;22.92;9.52;;;;;;;7.18;57.81;94784.13;5106056;28;20024;-77
2023/12/25 01:42:48;;;;;;;18.20;8.48;;;;;;;7.18;57.74;94792.34;5107104;28;20023;-78
2023/12/25 01:45:14;;;;;;;19.70;9.57;;;;;;;7.19;57.68;94780.22;5106575;28;20142;-77
2023/12/25 01:47:39;;;;;;;15.80;10.00;;;;;;;7.14;58.28;94780.69;5106650;28;20184;-78
2023/12/25 01:50:06;;;;;;;17.73;9.63;;;;;;;7.01;58.69;94796.94;5106893;28;20034;-77
2023/12/25 01:52:31;;;;;;;17.25;9.82;;;;;;;7.04;58.49;94782.41;5087946;28;20248;-78
2023/12/25 01:54:58;;;;;;;17.15;9.68;;;;;;;7.09;58.86;94790.13;5106842;28;20473;-77
2023/12/25 01:57:25;;;;;;;21.25;11.82;;;;;;;7.04;58.83;94798.81;5104454;28;20027;-78
2023/12/25 01:59:50;;;;;;;24.25;10.20;;;;;;;7.04;59.15;94789.84;5106926;28;20019;-76
2023/12/25 02:02:18;;;;;;;21.40;10.07;;;;;;;7.05;58.91;94792.16;5106115;28;20037;-76
2023/12/25 02:04:44;;;;;;;16.23;9.48;;;;;;;7.11;58.78;94787.78;5106766;28;20080;-76
2023/12/25 02:07:09;;;;;;;20.25;9.77;;;;;;;7.07;58.69;94783.56;5106485;28;20024;-78
2023/12/25 02:09:34;;;;;;;18.23;10.25;;;;;;;7.04;58.91;94778.91;5104525;28;20030;-77
2023/12/25 02:12:00;;;;;;;19.55;10.93;;;;;;;7.06;58.89;94787.50;5106254;28;20115;-76
2023/12/25 02:14:25;;;;;;;18.70;10.57;;;;;;;7.02;59.38;94784.81;5103870;28;20048;-77
2023/12/25 02:16:51;;;;;;;19.92;9.90;;;;;;;7.00;59.36;94770.03;5107017;28;20034;-77
2023/12/25 02:19:27;;;;;;;20.55;10.82;;;;;;;7.00;59.57;94776.25;5104174;28;20039;-77
2023/12/25 02:21:52;;;;;;;23.23;11.35;;;;;;;6.96;59.50;94775.53;5106539;28;20102;-77
2023/12/25 02:24:23;;;;;;;16.25;10.32;;;;;;;7.01;59.22;94783.28;5105991;28;20565;-77
2023/12/25 02:26:48;;;;;;;20.63;9.95;;;;;;;6.98;59.36;94788.78;5104516;28;20027;-77
2023/12/25 02:29:13;;;;;;;20.52;10.35;;;;;;;6.92;59.55;94788.50;5106273;28;20028;-77
2023/12/25 02:31:39;;;;;;;18.80;10.60;;;;;;;6.91;59.81;94771.31;5104075;28;20092;-77
2023/12/25 02:34:04;;;;;;;17.13;10.15;;;;;;;6.93;59.62;94787.28;5106518;28;20032;-77
2023/12/25 02:36:30;;;;;;;17.55;10.05;;;;;;;6.91;59.77;94778.75;5105635;28;20198;-78
2023/12/25 02:38:55;;;;;;;22.42;10.90;;;;;;;6.92;59.79;94775.59;5106456;28;20064;-77
2023/12/25 02:41:21;;;;;;;19.70;10.50;;;;;;;6.89;59.42;94778.41;5105573;28;20438;-78
2023/12/25 02:43:46;;;;;;;18.88;9.82;;;;;;;6.84;59.66;94779.66;5105807;28;20028;-78
2023/12/25 02:46:11;;;;;;;16.60;9.40;;;;;;;6.87;59.36;94775.28;5105864;28;20098;-78
2023/12/25 02:48:37;;;;;;;16.10;9.35;;;;;;;6.86;59.31;94781.97;5105645;28;20023;-77
2023/12/25 02:51:02;;;;;;;19.30;9.98;;;;;;;6.87;59.32;94783.50;5106218;28;20094;-77
2023/12/25 02:53:28;;;;;;;19.35;9.98;;;;;;;6.83;59.55;94789.03;5107159;28;20023;-77
2023/12/25 02:55:53;;;;;;;18.13;10.75;;;;;;;6.76;59.45;94791.88;5110539;28;20038;-77
2023/12/25 02:58:18;;;;;;;19.80;10.35;;;;;;;6.77;59.43;94795.41;5109202;27;20038;-78
2023/12/25 03:00:44;;;;;;;17.55;9.73;;;;;;;6.72;59.62;94791.19;5110111;28;20020;-77
2023/12/25 03:03:09;;;;;;;20.70;9.88;;;;;;;6.69;59.87;94799.41;5109681;28;20023;-78
2023/12/25 03:05:34;;;;;;;19.08;10.27;;;;;;;6.70;59.80;94790.03;5109505;28;20034;-77
2023/12/25 03:08:00;;;;;;;15.27;9.38;;;;;;;6.60;60.14;94795.25;5109801;28;20024;-77
2023/12/25 03:10:25;;;;;;;19.73;9.65;;;;;;;6.58;60.13;94800.34;5107597;28;20051;-77
2023/12/25 03:12:50;;;;;;;13.48;8.68;;;;;;;6.54;60.56;94813.31;5110196;28;20555;-78
2023/12/25 03:15:16;;;;;;;17.27;8.98;;;;;;;6.60;60.30;94803.47;5108534;27;20118;-78
2023/12/25 03:17:41;;;;;;;19.58;10.10;;;;;;;6.61;60.14;94806.97;5108686;28;20422;-78
2023/12/25 03:20:07;;;;;;;17.60;9.32;;;;;;;6.51;60.38;94816.84;5109634;28;20032;-75
2023/12/25 03:22:33;;;;;;;18.25;9.45;;;;;;;6.58;60.32;94810.50;5109737;28;20027;-76
2023/12/25 03:24:59;;;;;;;15.57;9.60;;;;;;;6.56;60.16;94815.63;5109730;28;20512;-76
2023/12/25 03:27:25;;;;;;;19.80;10.25;;;;;;;6.58;59.92;94819.47;5109177;27;20039;-76
2023/12/25 03:29:50;;;;;;;19.95;10.43;;;;;;;6.52;60.45;94821.13;5110031;28;20128;-77
2023/12/25 03:32:19;;;;;;;18.88;10.18;;;;;;;6.50;60.37;94826.25;5108877;28;20065;-77
2023/12/25 03:34:45;;;;;;;17.58;9.65;;;;;;;6.49;60.19;94811.03;5109899;28;20059;-77
2023/12/25 03:37:11;;;;;;;18.05;9.43;;;;;;;6.44;60.50;94836.09;5108597;27;20028;-78
2023/12/25 03:39:36;;;;;;;18.67;9.98;;;;;;;6.38;60.48;94822.13;5109118;28;20137;-79
2023/12/25 03:42:02;;;;;;;19.33;10.32;;;;;;;6.34;60.55;94824.13;5109253;28;20115;-77
2023/12/25 03:44:27;;;;;;;18.80;9.85;;;;;;;6.37;60.68;94842.41;5108788;28;20442;-77
2023/12/25 03:46:52;;;;;;;15.63;9.55;;;;;;;6.39;60.55;94842.00;5109436;28;20596;-77
2023/12/25 03:49:18;;;;;;;17.10;9.55;;;;;;;6.39;60.85;94842.00;5108213;28;20023;-76
2023/12/25 03:51:43;;;;;;;18.17;8.98;;;;;;;6.40;60.60;94851.72;5109822;28;20106;-76
2023/12/25 03:54:08;;;;;;;13.95;9.18;;;;;;;6.40;60.44;94840.81;5107901;28;20639;-77
2023/12/25 03:56:34;;;;;;;15.73;8.23;;;;;;;6.43;60.50;94839.22;5109381;27;20110;-77
2023/12/25 03:58:59;;;;;;;12.32;7.93;;;;;;;6.39;60.55;94842.78;5109020;28;20532;-77
2023/12/25 04:01:25;;;;;;;15.85;9.82;;;;;;;6.36;60.31;94846.31;5107071;28;20034;-77
2023/12/25 04:03:50;;;;;;;11.70;7.10;;;;;;;6.39;60.14;94850.19;5108380;28;20035;-77
2023/12/25 04:06:23;;;;;;;11.40;4.97;;;;;;;6.50;59.58;94842.63;5107366;28;20073;-76
2023/12/25 04:08:49;;;;;;;7.85;4.35;;;;;;;6.52;59.39;94844.94;5109552;28;20024;-77
2023/12/25 04:11:19;;;;;;;8.88;3.75;;;;;;;6.37;59.45;94841.66;5107613;28;20038;-77
2023/12/25 04:13:44;;;;;;;12.05;4.00;;;;;;;6.41;59.51;94850.53;5108753;28;20051;-77
2023/12/25 04:16:19;;;;;;;7.18;4.03;;;;;;;6.48;59.19;94845.00;5107884;28;20110;-77
2023/12/25 04:18:45;;;;;;;8.27;4.05;;;;;;;6.57;58.83;94845.25;5107356;28;20023;-78
2023/12/25 04:21:26;;;;;;;11.60;4.25;;;;;;;6.58;58.75;94843.28;5108369;28;20031;-78
2023/12/25 04:23:53;;;;;;;8.50;3.15;;;;;;;6.48;58.92;94844.19;5107937;28;20022;-77
2023/12/25 04:26:19;;;;;;;8.57;4.18;;;;;;;6.41;59.08;94828.69;5108991;28;20034;-77
2023/12/25 04:28:45;;;;;;;8.93;4.03;;;;;;;6.34;59.44;94840.50;5107828;28;20024;-76
2023/12/25 04:31:10;;;;;;;7.80;3.85;;;;;;;6.34;59.31;94845.19;5106741;28;20097;-78
2023/12/25 04:33:36;;;;;;;7.03;3.75;;;;;;;6.36;59.16;94840.84;5108014;28;20063;-78
2023/12/25 04:36:01;;;;;;;8.10;3.40;;;;;;;6.25;59.37;94839.47;5108019;28;20020;-78
2023/12/25 04:38:26;;;;;;;8.93;3.75;;;;;;;6.29;59.39;94851.09;5108093;28;20103;-77
2023/12/25 04:40:52;;;;;;;11.20;3.72;;;;;;;6.31;59.28;94859.69;5107485;28;20078;-77
2023/12/25 04:43:17;;;;;;;9.52;3.95;;;;;;;6.35;59.06;94858.41;5108336;28;20031;-77
2023/12/25 04:45:42;;;;;;;8.57;4.18;;;;;;;6.35;58.86;94863.88;5107230;28;20051;-77
2023/12/25 04:48:08;;;;;;;8.07;3.88;;;;;;;6.44;58.92;94868.84;5108241;28;20086;-76
2023/12/25 04:50:33;;;;;;;7.25;3.58;;;;;;;6.43;58.93;94867.31;5107514;28;20072;-77
2023/12/25 04:52:59;;;;;;;8.85;3.90;;;;;;;6.37;59.04;94845.16;5107879;28;20039;-76
2023/12/25 04:55:25;;;;;;;11.57;4.75;;;;;;;6.45;58.90;94855.97;5107699;28;20577;-77
2023/12/25 04:57:51;;;;;;;7.93;4.18;;;;;;;6.47;58.96;94865.28;5107383;27;20111;-77
2023/12/25 05:00:16;;;;;;;13.95;5.70;;;;;;;6.51;59.06;94866.00;5107995;28;20031;-77
2023/12/25 05:02:41;;;;;;;9.45;5.07;;;;;;;6.51;59.14;94860.56;5107489;28;20474;-77
2023/12/25 05:05:07;;;;;;;12.63;4.95;;;;;;;6.47;58.77;94853.59;5107977;28;20049;-77
2023/12/25 05:07:32;;;;;;;8.00;4.97;;;;;;;6.53;59.24;94844.50;5106967;28;20065;-76
2023/12/25 05:09:58;;;;;;;11.40;5.57;;;;;;;6.59;59.05;94842.84;5107898;28;20084;-77
2023/12/25 05:12:23;;;;;;;11.90;6.00;;;;;;;6.56;59.04;94838.25;5107117;28;20095;-77
2023/12/25 05:14:48;;;;;;;10.80;7.32;;;;;;;6.55;59.31;94847.63;5107338;28;20427;-77
2023/12/25 05:17:14;;;;;;;14.15;7.05;;;;;;;6.58;59.40;94857.72;5106970;28;20107;-76
2023/12/25 05:19:42;;;;;;;12.02;6.50;;;;;;;6.59;59.23;94872.13;5107027;28;20386;-77
2023/12/25 05:22:07;;;;;;;13.00;6.60;;;;;;;6.57;59.08;94883.47;5108088;28;20019;-77
2023/12/25 05:24:32;;;;;;;14.07;6.28;;;;;;;6.62;58.67;94868.59;5107278;28;20031;-77
2023/12/25 05:26:58;;;;;;;10.18;4.80;;;;;;;6.57;58.79;94871.78;5107858;28;20614;-76
2023/12/25 05:29:23;;;;;;;10.77;4.57;;;;;;;6.52;58.98;94889.41;5106446;28;20027;-77
2023/12/25 05:31:48;;;;;;;14.55;4.90;;;;;;;6.53;59.04;94874.56;5107338;28;20473;-77
2023/12/25 05:34:14;;;;;;;8.63;3.78;;;;;;;6.52;58.62;94864.81;5106724;27;20119;-77
2023/12/25 05:36:39;;;;;;;9.75;4.35;;;;;;;6.55;58.51;94855.03;5107025;28;20036;-76
2023/12/25 05:39:04;;;;;;;9.48;5.13;;;;;;;6.56;58.59;94856.59;5107405;28;20122;-77
2023/12/25 05:41:30;;;;;;;10.88;6.22;;;;;;;6.60;58.40;94870.97;5106204;28;20521;-77
2023/12/25 05:43:55;;;;;;;11.27;5.68;;;;;;;6.59;58.62;94886.56;5107507;28;20046;-77
2023/12/25 05:46:21;;;;;;;12.20;6.50;;;;;;;6.61;58.39;94883.44;5106044;28;20134;-77
2023/12/25 05:48:46;;;;;;;11.30;5.60;;;;;;;6.58;58.43;94871.38;5107523;28;20030;-77
2023/12/25 05:51:12;;;;;;;9.20;4.68;;;;;;;6.52;58.47;94867.56;5106300;28;20028;-79
2023/12/25 05:53:37;;;;;;;10.27;4.50;;;;;;;6.46;58.60;94862.97;5106463;28;20497;-77
2023/12/25 05:56:03;;;;;;;9.63;5.15;;;;;;;6.45;58.68;94855.97;5106806;28;20020;-77
2023/12/25 05:58:29;;;;;;;8.07;3.85;;;;;;;6.44;58.88;94862.63;5105841;28;20019;-77
2023/12/25 06:00:54;;;;;;;9.75;5.10;;;;;;;6.43;58.81;94858.34;5107366;28;20383;-76
2023/12/25 06:03:20;;;;;;;8.85;5.00;;;;;;;6.51;58.63;94876.16;5105770;28;20502;-77
2023/12/25 06:05:45;;;;;;;11.13;5.25;;;;;;;6.41;59.09;94885.28;5107158;28;20036;-77
2023/12/25 06:08:10;;;;;;;13.52;5.47;;;;;;;6.38;59.18;94903.25;5105844;28;20102;-78
2023/12/25 06:10:36;;;;;;;11.05;5.38;;;;;;;6.35;59.29;94918.50;5106710;28;20086;-77
2023/12/25 06:13:02;;;;;;;9.18;5.25;;;;;;;6.34;59.31;94911.50;5104792;28;20042;-79
2023/12/25 06:15:28;;;;;;;14.07;6.57;;;;;;;6.33;59.08;94911.91;5105692;28;20259;-78
2023/12/25 06:17:53;;;;;;;12.18;5.70;;;;;;;6.33;59.33;94917.38;5106544;28;20032;-78
2023/12/25 06:20:20;;;;;;;12.30;4.57;;;;;;;6.33;59.20;94920.88;5105513;28;20055;-78
2023/12/25 06:22:46;;;;;;;8.63;4.93;;;;;;;6.34;59.08;94924.38;5106917;28;20470;-78
2023/12/25 06:25:11;;;;;;;9.20;4.10;;;;;;;6.38;59.06;94930.56;5105319;28;20034;-77
2023/12/25 06:27:37;;;;;;;7.97;3.67;;;;;;;6.36;58.90;94930.19;5106305;28;20032;-78
2023/12/25 06:30:04;;;;;;;8.30;3.50;;;;;;;6.35;58.88;94913.03;5105803;28;20102;-77
2023/12/25 06:32:30;;;;;;;9.75;4.45;;;;;;;6.37;58.69;94910.69;5106054;28;20482;-77
2023/12/25 06:34:55;;;;;;;6.10;2.90;;;;;;;6.45;58.53;94911.34;5106545;28;20020;-78
2023/12/25 06:37:20;;;;;;;6.03;3.10;;;;;;;6.43;58.33;94921.16;5105415;28;20406;-77
2023/12/25 06:39:46;;;;;;;9.45;4.38;;;;;;;6.37;58.76;94918.88;5106417;28;20024;-77
2023/12/25 06:42:12;;;;;;;8.25;4.00;;;;;;;6.41;58.75;94926.22;5105539;28;20032;-79
2023/12/25 06:44:39;;;;;;;7.00;3.70;;;;;;;6.35;58.95;94928.66;5106453;28;20481;-77
2023/12/25 06:47:05;;;;;;;13.85;6.53;;;;;;;6.30;59.06;94929.88;5105936;28;20027;-79
2023/12/25 06:49:30;;;;;;;10.63;6.10;;;;;;;6.26;59.43;94939.31;5106221;28;20016;-78
2023/12/25 06:51:56;;;;;;;13.85;6.43;;;;;;;6.35;59.60;94955.94;5105958;28;20027;-78
2023/12/25 06:54:21;;;;;;;14.38;6.95;;;;;;;6.37;59.67;94940.72;5105410;28;20057;-78
2023/12/25 06:56:46;;;;;;;14.27;7.10;;;;;;;6.43;59.64;94957.44;5106510;28;20039;-78
2023/12/25 06:59:12;;;;;;;19.55;8.82;;;;;;;6.49;59.36;94946.81;5105037;28;20486;-78
2023/12/25 07:01:37;;;;;;;17.48;9.43;;;;;;;6.56;59.30;94944.00;5106295;28;20043;-77
2023/12/25 07:04:03;;;;;;;15.50;8.95;;;;;;;6.53;59.24;94931.91;5105312;28;20035;-80
2023/12/25 07:06:28;;;;;;;18.65;10.80;;;;;;;6.61;59.10;94935.34;5106068;28;20074;-77
2023/12/25 07:08:53;;;;;;;16.77;10.50;;;;;;;6.66;58.89;94937.63;5105220;28;20063;-78
2023/12/25 07:11:19;;;;;;;12.98;7.15;;;;;;;6.71;58.41;94950.81;5105743;28;20031;-78
2023/12/25 07:13:44;;;;;;;12.80;7.25;;;;;;;6.77;58.08;94953.88;5105937;28;20540;-78
2023/12/25 07:16:19;;;;;;;14.13;7.60;;;;;;;6.83;58.02;94966.66;5105300;28;20031;-78
2023/12/25 07:18:45;;;;;;;14.43;8.10;;;;;;;6.91;58.00;94954.41;5106243;28;20517;-78
2023/12/25 07:21:10;;;;;;;12.93;6.25;;;;;;;6.95;57.89;94946.19;5103553;28;20058;-78
2023/12/25 07:23:36;;;;;;;12.15;5.40;;;;;;;7.05;57.36;94942.50;5106554;28;20015;-78
2023/12/25 07:26:02;;;;;;;10.05;5.75;;;;;;;7.18;56.78;94935.28;5105528;28;20028;-78
2023/12/25 07:28:28;;;;;;;11.15;5.97;;;;;;;7.23;56.75;94946.94;5103878;28;20521;-79
2023/12/25 07:30:53;;;;;;;10.23;6.43;;;;;;;7.32;56.82;94947.16;5105493;28;20036;-78
2023/12/25 07:33:19;;;;;;;13.48;5.63;;;;;;;7.39;56.56;94966.19;5105097;28;20067;-78
2023/12/25 07:35:44;;;;;;;11.40;5.75;;;;;;;7.50;55.99;94968.75;5105886;28;20387;-78
2023/12/25 07:38:10;;;;;;;10.25;5.78;;;;;;;7.65;55.79;94986.50;5105134;28;20039;-78
2023/12/25 07:40:35;;;;;;;13.40;5.70;;;;;;;7.85;55.43;94983.78;5109299;28;20798;-78
2023/12/25 07:43:01;;;;;;;11.75;6.70;;;;;;;8.12;54.65;94979.00;5108792;28;20029;-78
2023/12/25 07:45:26;;;;;;;18.17;8.40;;;;;;;8.44;54.15;94983.91;5109103;28;20495;-78
2023/12/25 07:47:52;;;;;;;14.38;7.70;;;;;;;8.73;53.45;94975.88;5109395;28;20019;-78
2023/12/25 07:50:17;;;;;;;18.27;8.45;;;;;;;9.21;52.31;94987.38;5108752;28;20446;-77
2023/12/25 07:52:42;;;;;;;14.20;7.75;;;;;;;9.64;51.41;94995.38;5109302;28;20039;-80
2023/12/25 07:55:08;;;;;;;13.32;8.52;;;;;;;10.30;49.80;94991.34;5107225;28;20030;-78
2023/12/25 07:57:35;;;;;;;12.38;7.55;;;;;;;11.67;46.46;94984.19;5109711;27;20566;-80
2023/12/25 08:00:00;;;;;;;10.55;7.07;;;;;;;13.51;42.18;94974.53;5108785;28;20027;-76
2023/12/25 08:02:26;;;;;;;13.10;6.18;;;;;;;15.02;39.25;94972.50;5110926;28;20458;-79
2023/12/25 08:04:51;;;;;;;11.15;6.35;;;;;;;16.29;36.23;94964.09;5108892;28;20034;-79
2023/12/25 08:07:17;;;;;;;12.80;6.05;;;;;;;17.38;33.77;94964.34;5108874;28;20024;-79
2023/12/25 08:09:42;;;;;;;7.75;4.70;;;;;;;18.47;31.64;94972.47;5109038;28;20393;-79
2023/12/25 08:12:08;;;;;;;9.85;5.20;;;;;;;19.43;30.34;94974.22;5107017;28;20123;-78
2023/12/25 08:14:33;;;;;;;10.60;5.03;;;;;;;20.37;28.72;94982.47;5108506;28;20044;-78
2023/12/25 08:16:58;;;;;;;8.48;5.43;;;;;;;21.19;27.44;94990.13;5107660;28;20396;-78
2023/12/25 08:19:24;;;;;;;9.27;4.88;;;;;;;21.90;26.62;94979.50;5108964;28;20022;-79
2023/12/25 08:21:49;;;;;;;9.88;4.53;;;;;;;22.46;25.43;94976.59;5107952;28;20077;-78
2023/12/25 08:24:14;;;;;;;7.65;4.22;;;;;;;22.79;24.77;94970.09;5107304;28;20103;-78
2023/12/25 08:26:40;;;;;;;7.95;4.65;;;;;;;23.44;24.05;94967.97;5108166;28;20032;-78
2023/12/25 08:29:05;;;;;;;7.53;4.22;;;;;;;24.06;23.39;94971.03;5108204;28;20030;-78
2023/12/25 08:31:31;;;;;;;8.93;4.32;;;;;;;24.29;23.16;94980.00;5108148;28;20047;-78
2023/12/25 08:33:56;;;;;;;10.88;4.28;;;;;;;24.88;22.53;94975.50;5107851;28;20062;-79
2023/12/25 08:36:22;;;;;;;6.70;3.78;;;;;;;25.60;21.74;94987.81;5108462;28;20027;-79
2023/12/25 08:38:47;;;;;;;7.03;3.47;;;;;;;26.49;20.87;94990.41;5107249;28;20444;-81
2023/12/25 08:41:13;;;;;;;6.22;3.55;;;;;;;27.07;20.45;94983.91;5108899;28;20020;-77
2023/12/25 08:43:38;;;;;;;8.63;3.83;;;;;;;27.46;19.93;94970.97;5088635;28;20024;-78
2023/12/25 08:46:03;;;;;;;7.55;3.80;;;;;;;27.78;19.55;94970.78;5108260;28;20085;-79
2023/12/25 08:48:29;;;;;;;6.40;3.50;;;;;;;28.29;19.19;94981.56;5107513;28;20107;-78
2023/12/25 08:50:54;;;;;;;9.35;3.88;;;;;;;28.92;18.21;94984.25;5107262;27;20020;-77
2023/12/25 08:53:19;;;;;;;6.80;4.18;;;;;;;28.96;18.07;94974.13;5107367;28;20118;-86
2023/12/25 08:55:45;;;;;;;10.13;4.07;;;;;;;29.36;17.52;94963.13;5105875;28;20418;-79
2023/12/25 08:58:10;;;;;;;9.15;4.28;;;;;;;29.59;17.44;94949.06;5108358;28;20016;-81
2023/12/25 09:00:36;;;;;;;12.68;4.63;;;;;;;29.53;16.92;94954.13;5106624;28;20015;-79
2023/12/25 09:03:02;;;;;;;8.93;5.00;;;;;;;29.65;17.28;94962.25;5108360;28;20020;-79
2023/12/25 09:05:28;;;;;;;8.38;5.50;;;;;;;30.26;16.45;94957.44;5107049;28;20069;-89
2023/12/25 09:07:53;;;;;;;7.68;5.55;;;;;;;30.17;16.65;94962.94;5089643;28;20012;-85
2023/12/25 09:10:18;;;;;;;11.20;6.35;;;;;;;30.28;16.33;94965.34;5107423;28;20043;-88
2023/12/25 09:12:44;;;;;;;13.77;6.32;;;;;;;30.80;16.15;94958.13;5105695;28;20118;-78
2023/12/25 09:15:13;;;;;;;10.27;6.20;;;;;;;31.50;15.57;94950.84;5107569;28;20471;-81
2023/12/25 09:17:38;;;;;;;10.55;6.32;;;;;;;32.29;15.18;94937.06;5088031;28;20123;-79
2023/12/25 09:20:04;;;;;;;12.93;7.03;;;;;;;32.62;14.74;94936.94;5108907;28;20099;-76
2023/12/25 09:22:29;;;;;;;9.15;6.50;;;;;;;33.21;14.28;94938.97;5104179;28;20099;-84
2023/12/25 09:25:05;;;;;;;9.35;6.30;;;;;;;33.62;13.83;94942.25;5107780;28;20052;-93
2023/12/25 09:27:30;;;;;;;10.25;7.13;;;;;;;33.92;13.68;94933.25;5093322;28;20063;-84
2023/12/25 09:29:55;;;;;;;12.30;7.00;;;;;;;33.94;13.54;94933.41;5112995;28;20027;-81
2023/12/25 09:32:21;;;;;;;11.50;6.72;;;;;;;34.47;13.41;94933.91;5107094;28;20053;-79
2023/12/25 09:34:47;;;;;;;9.40;5.47;;;;;;;35.01;12.85;94928.72;5106801;28;20023;-79
2023/12/25 09:37:12;;;;;;;13.00;6.90;;;;;;;35.45;12.64;94927.66;5106267;28;20023;-80
2023/12/25 09:39:37;;;;;;;12.50;6.70;;;;;;;35.64;12.63;94919.03;5105877;28;20475;-78
2023/12/25 09:42:04;;;;;;;8.18;5.47;;;;;;;35.69;12.60;94919.31;5107578;28;20027;-79
2023/12/25 09:44:30;;;;;;;8.13;4.38;;;;;;;36.28;12.12;94909.13;5106147;28;20054;-81
2023/12/25 09:46:57;;;;;;;8.15;3.75;;;;;;;36.21;12.18;94905.13;5107240;28;20463;-82
2023/12/25 09:49:24;;;;;;;6.72;3.30;;;;;;;35.88;12.11;94905.69;5105060;28;20118;-76
2023/12/25 09:51:54;;;;;;;5.68;2.88;;;;;;;36.32;11.52;94893.00;5105316;28;20578;-77
2023/12/25 09:54:19;;;;;;;8.70;3.30;;;;;;;36.29;11.84;94897.06;5106753;28;20024;-85
2023/12/25 09:56:45;;;;;;;7.13;2.53;;;;;;;36.08;12.08;94897.81;5087412;28;20030;-75
2023/12/25 09:59:11;;;;;;;6.80;4.00;;;;;;;35.95;12.13;94897.56;5107229;28;20485;-73
2023/12/25 10:01:37;;;;;;;6.38;3.90;;;;;;;36.65;11.86;94903.81;5104349;28;20525;-73
2023/12/25 10:04:04;;;;;;;7.90;3.88;;;;;;;36.56;11.89;94893.94;5105188;28;20413;-80
2023/12/25 10:06:29;;;;;;;7.65;4.03;;;;;;;36.79;11.80;94892.56;5104756;28;20028;-78
2023/12/25 10:08:54;;;;;;;7.70;4.05;;;;;;;37.15;11.71;94905.69;5106687;28;20030;-76
2023/12/25 10:11:21;;;;;;;6.47;4.07;;;;;;;36.87;12.00;94890.22;5106450;27;20030;-79
2023/12/25 10:13:46;;;;;;;6.00;3.63;;;;;;;37.10;12.29;94889.59;5105695;28;20040;-85
2023/12/25 10:16:12;;;;;;;8.45;3.53;;;;;;;36.74;11.65;94887.91;5088479;28;20413;-76
2023/12/25 10:18:38;;;;;;;5.80;3.15;;;;;;;36.83;11.67;94890.72;5105280;28;20126;-81
2023/12/25 10:21:05;;;;;;;6.75;3.33;;;;;;;36.63;11.69;94884.38;5107913;28;20024;-85
2023/12/25 10:23:34;;;;;;;7.47;3.17;;;;;;;36.25;11.97;94881.75;5104057;28;20133;-83
2023/12/25 10:26:02;;;;;;;9.52;3.30;;;;;;;36.34;12.14;94878.81;5105154;28;20570;-84
2023/12/25 10:28:32;;;;;;;8.07;3.63;;;;;;;36.34;11.96;94870.25;5106262;28;20024;-77
2023/12/25 10:31:04;;;;;;;5.50;3.10;;;;;;;36.20;11.53;94865.69;5106052;28;20023;-76
2023/12/25 10:33:32;;;;;;;;;;;;;;;36.03;11.69;94861.69;5107189;28;20036;-76
2023/12/25 10:36:02;;;;;;;6.20;3.22;;;;;;;35.91;11.73;94849.41;5105360;28;19916;-76
2023/12/25 10:38:28;;;;;;;9.68;3.47;;;;;;;36.35;11.90;94854.56;5106085;28;20524;-76
2023/12/25 10:40:53;;;;;;;6.38;2.80;;;;;;;36.58;11.44;94839.66;5105711;28;20106;-76
2023/12/25 10:43:21;;;;;;;7.00;2.72;;;;;;;36.72;11.54;94848.47;5106079;28;20300;-78
2023/12/25 10:45:50;;;;;;;7.88;3.90;;;;;;;37.08;11.25;94849.38;5105894;28;20106;-76
2023/12/25 10:48:16;;;;;;;9.48;3.90;;;;;;;37.18;11.51;94853.63;5104194;28;20023;-83
2023/12/25 10:50:44;;;;;;;10.40;4.60;;;;;;;37.08;11.47;94855.09;5106136;28;20046;-75
2023/12/25 10:53:10;;;;;;;9.00;4.30;;;;;;;37.65;11.07;94838.66;5104102;28;20020;-74
2023/12/25 10:55:37;;;;;;;8.93;3.90;;;;;;;37.86;10.94;94843.56;5106433;28;20022;-76
2023/12/25 10:58:08;;;;;;;8.75;4.45;;;;;;;38.48;10.66;94843.00;5103803;28;20030;-75
2023/12/25 11:00:39;;;;;;;8.35;4.53;;;;;;;39.04;10.11;94839.09;5105781;28;20023;-73
2023/12/25 11:03:05;;;;;;;7.13;4.07;;;;;;;38.83;9.65;94842.94;5104564;28;20031;-73
2023/12/25 11:05:33;;;;;;;10.07;4.18;;;;;;;39.00;9.86;94841.75;5103705;28;20031;-74
2023/12/25 11:07:59;;;;;;;8.23;4.22;;;;;;;39.97;9.37;94840.66;5106449;28;20029;-74
2023/12/25 11:10:27;;;;;;;9.75;4.60;;;;;;;40.67;9.11;94832.78;5104711;28;20032;-76
2023/12/25 11:12:53;;;;;;;8.43;3.90;;;;;;;41.00;8.68;94844.53;5106421;28;20024;-78
2023/12/25 11:15:18;;;;;;;9.55;3.72;;;;;;;41.56;8.66;94837.16;5106719;28;20052;-77
2023/12/25 11:17:44;;;;;;;8.43;3.67;;;;;;;41.79;8.06;94844.72;5109550;28;20094;-74
2023/12/25 11:20:10;;;;;;;7.00;3.38;;;;;;;41.99;8.04;94836.25;5108850;28;20030;-76
2023/12/25 11:22:36;;;;;;;9.68;4.05;;;;;;;42.09;8.19;94838.84;5108560;28;20032;-75
2023/12/25 11:25:05;;;;;;;6.95;3.85;;;;;;;42.11;8.12;94838.94;5108499;28;20413;-76
2023/12/25 11:27:31;;;;;;;6.85;3.92;;;;;;;42.24;7.88;94837.38;5106967;28;20020;-76